Time;durP1;ratioP1;P1;durP2;ratioP2;P2;SDS_P1;SDS_P2;PMS_P1;PMS_P2;Temp;Humidity;BMP_temperature;BMP_pressure;BME280_temperature;BME280_humidity;BME280_pressure;Samples;Min_cycle;Max_cycle;Signal;HPM_P1;HPM_P2
2023/05/27 00:01:18;;;;;;;12.07;7.25;;;;;;;19.31;58.11;100121.44;7578728;33;38036;-74
2023/05/27 00:05:35;;;;;;;12.90;6.93;;;;;;;19.43;57.71;100118.84;7578611;33;37865;-74
2023/05/27 00:09:51;;;;;;;11.12;7.40;;;;;;;19.31;58.09;100119.47;7578603;33;39502;-75
2023/05/27 00:14:08;;;;;;;10.68;7.18;;;;;;;19.14;58.77;100111.97;7575819;33;39951;-74
2023/05/27 00:18:24;;;;;;;15.63;7.12;;;;;;;19.24;58.53;100116.38;7552543;33;38415;-74
2023/05/27 00:22:41;;;;;;;12.37;7.20;;;;;;;19.23;58.64;100119.44;7552493;33;36964;-74
2023/05/27 00:26:57;;;;;;;12.77;7.28;;;;;;;19.18;59.12;100116.84;7555072;33;39363;-74
2023/05/27 00:31:14;;;;;;;17.00;6.40;;;;;;;19.27;58.85;100103.88;7555763;33;40792;-74
2023/05/27 00:35:31;;;;;;;10.60;6.20;;;;;;;19.30;58.92;100114.28;7556057;33;38648;-73
2023/05/27 00:39:47;;;;;;;12.05;6.90;;;;;;;19.24;58.95;100101.75;7555656;33;38193;-73
2023/05/27 00:44:04;;;;;;;12.52;5.87;;;;;;;19.40;58.27;100108.41;7555768;33;39395;-74
2023/05/27 00:48:21;;;;;;;9.98;6.05;;;;;;;19.38;58.33;100098.84;7555647;33;39937;-74
2023/05/27 00:52:37;;;;;;;10.95;6.15;;;;;;;19.47;57.86;100094.13;7555672;33;38879;-73
2023/05/27 00:56:54;;;;;;;10.88;6.15;;;;;;;19.36;57.93;100095.59;7579323;33;37925;-74
2023/05/27 01:01:10;;;;;;;10.02;5.87;;;;;;;19.44;57.56;100101.13;7581273;33;39228;-74
2023/05/27 01:05:29;;;;;;;10.15;6.00;;;;;;;19.47;57.12;100097.72;7555410;33;39655;-73
2023/05/27 01:10:09;;;;;;;12.00;6.25;;;;;;;19.38;57.33;100099.66;7555437;33;37308;-74
2023/05/27 01:14:26;;;;;;;10.75;6.40;;;;;;;19.43;57.35;100101.44;7550939;33;37093;-74
2023/05/27 01:18:48;;;;;;;9.75;6.12;;;;;;;19.29;57.62;100091.34;7567802;33;39393;-74
2023/05/27 01:23:04;;;;;;;15.77;6.85;;;;;;;19.35;57.23;100088.41;7568352;33;39608;-73
2023/05/27 01:27:24;;;;;;;14.02;6.97;;;;;;;19.59;56.23;100096.25;7566484;33;38738;-74
2023/05/27 01:31:48;;;;;;;10.93;6.90;;;;;;;19.48;55.99;100093.78;7555314;33;37357;-73
2023/05/27 01:36:16;;;;;;;12.55;6.82;;;;;;;19.44;55.37;100087.31;7540771;33;40031;-73
2023/05/27 01:40:33;;;;;;;10.25;6.55;;;;;;;19.35;55.57;100089.25;7543035;33;40026;-74
2023/05/27 01:44:50;;;;;;;12.00;6.90;;;;;;;19.28;56.25;100097.19;7554845;33;38717;-74
2023/05/27 01:49:06;;;;;;;10.63;6.50;;;;;;;19.16;56.73;100094.25;7541545;33;37082;-73
2023/05/27 01:53:23;;;;;;;10.20;6.53;;;;;;;19.26;56.49;100093.94;7554891;33;39313;-73
2023/05/27 01:57:39;;;;;;;13.52;7.22;;;;;;;19.07;57.08;100095.03;7799577;27;40017;-75
2023/05/27 02:01:55;;;;;;;10.77;6.57;;;;;;;19.14;57.06;100094.56;7579949;33;38009;-76
2023/05/27 02:06:11;;;;;;;13.85;6.70;;;;;;;19.29;56.37;100087.78;7580563;33;38137;-77
2023/05/27 02:10:28;;;;;;;13.05;6.57;;;;;;;19.40;55.75;100091.84;7580579;33;40191;-76
2023/05/27 02:14:45;;;;;;;10.98;6.32;;;;;;;19.43;55.47;100093.16;7580349;33;39954;-76
2023/05/27 02:19:02;;;;;;;10.85;6.43;;;;;;;19.42;55.03;100088.75;7579938;33;37758;-77
2023/05/27 02:23:18;;;;;;;17.02;6.97;;;;;;;19.38;55.63;100094.13;7580397;33;37160;-74
2023/05/27 02:27:34;;;;;;;10.82;6.80;;;;;;;19.20;56.78;100086.97;7580435;33;39376;-73
2023/05/27 02:31:51;;;;;;;12.75;6.90;;;;;;;19.07;57.36;100089.50;7580244;33;41191;-73
2023/05/27 02:36:07;;;;;;;15.73;7.15;;;;;;;19.18;57.09;100094.72;7580236;33;37780;-73
2023/05/27 02:40:25;;;;;;;15.07;7.00;;;;;;;18.86;57.81;100105.88;7579810;33;36905;-73
2023/05/27 02:44:41;;;;;;;9.85;6.53;;;;;;;18.76;58.04;100090.38;7580065;33;39415;-73
2023/05/27 02:48:57;;;;;;;12.52;6.93;;;;;;;18.71;57.89;100092.47;7579612;33;40613;-73
2023/05/27 02:53:14;;;;;;;11.52;7.03;;;;;;;18.90;57.49;100089.47;7579985;33;37976;-74
2023/05/27 02:57:30;;;;;;;11.15;7.28;;;;;;;18.79;58.26;100096.41;7579510;33;37922;-73
2023/05/27 03:01:46;;;;;;;12.07;7.28;;;;;;;18.95;57.56;100098.44;7580019;33;39466;-73
2023/05/27 03:06:03;;;;;;;9.57;6.37;;;;;;;18.76;58.41;100106.13;7579842;33;39920;-73
2023/05/27 03:10:20;;;;;;;11.12;7.47;;;;;;;18.71;58.79;100098.81;7579138;33;37632;-74
2023/05/27 03:14:36;;;;;;;15.77;6.82;;;;;;;18.61;59.37;100107.38;7579441;33;37934;-74
2023/05/27 03:18:52;;;;;;;14.73;7.55;;;;;;;18.51;59.72;100104.91;7579801;33;39447;-74
2023/05/27 03:23:08;;;;;;;11.23;6.90;;;;;;;18.59;59.11;100106.84;7579634;33;40725;-73
2023/05/27 03:27:25;;;;;;;15.85;6.75;;;;;;;18.44;59.45;100110.03;7579446;33;37723;-73
2023/05/27 03:31:41;;;;;;;11.60;6.95;;;;;;;18.38;59.66;100124.00;7579258;33;37273;-73
2023/05/27 03:35:57;;;;;;;9.95;6.45;;;;;;;18.37;59.77;100116.03;7578877;33;39316;-73
2023/05/27 03:40:13;;;;;;;14.70;7.35;;;;;;;18.28;60.19;100124.25;7579351;33;39900;-73
2023/05/27 03:44:30;;;;;;;13.98;6.85;;;;;;;18.41;60.21;100124.47;7579148;33;37951;-73
2023/05/27 03:48:46;;;;;;;11.40;6.78;;;;;;;18.45;60.22;100126.28;7579251;33;37204;-73
2023/05/27 03:53:02;;;;;;;13.15;7.15;;;;;;;18.51;60.16;100121.47;7578829;33;40206;-73
2023/05/27 03:57:19;;;;;;;13.55;7.07;;;;;;;18.38;60.75;100124.00;7578684;33;40843;-73
2023/05/27 04:01:35;;;;;;;13.82;6.90;;;;;;;18.50;60.38;100120.62;7577804;33;37805;-73
2023/05/27 04:05:52;;;;;;;10.80;6.65;;;;;;;18.61;60.24;100115.66;7581279;33;37836;-73
2023/05/27 04:10:08;;;;;;;13.57;7.75;;;;;;;18.60;60.45;100119.53;7581647;33;40205;-73
2023/05/27 04:14:25;;;;;;;12.10;7.37;;;;;;;18.71;60.13;100129.19;7581787;33;41396;-74
2023/05/27 04:18:41;;;;;;;14.07;6.97;;;;;;;18.55;60.70;100141.75;7581287;33;37714;-73
2023/05/27 04:22:57;;;;;;;12.18;7.32;;;;;;;18.56;60.82;100132.37;7581284;33;37588;-73
2023/05/27 04:27:16;;;;;;;10.60;7.18;;;;;;;18.71;60.26;100139.41;7581820;33;40067;-74
2023/05/27 04:31:36;;;;;;;12.85;6.85;;;;;;;18.69;60.42;100128.66;7578054;33;38975;-74
2023/05/27 04:35:53;;;;;;;16.05;7.60;;;;;;;18.73;60.41;100129.69;7581157;33;38806;-74
2023/05/27 04:40:10;;;;;;;12.57;7.47;;;;;;;18.84;60.11;100124.72;7580995;33;37230;-73
2023/05/27 04:44:28;;;;;;;11.85;7.75;;;;;;;18.75;60.67;100132.94;7580893;33;40113;-74
2023/05/27 04:48:46;;;;;;;13.80;7.75;;;;;;;18.64;61.28;100137.09;7580894;33;39959;-75
2023/05/27 04:53:02;;;;;;;14.65;8.43;;;;;;;18.91;60.75;100138.87;7580850;33;38743;-73
2023/05/27 04:57:22;;;;;;;14.05;8.00;;;;;;;19.04;60.45;100139.91;7581010;33;37469;-73
2023/05/27 05:06:14;;;;;;;16.37;7.57;;;;;;;19.27;60.21;100137.03;7581022;33;40021;-76
2023/05/27 05:10:30;;;;;;;12.77;7.12;;;;;;;19.33;60.38;100135.72;7580530;32;38047;-73
2023/05/27 05:14:46;;;;;;;12.52;6.45;;;;;;;19.69;59.14;100129.91;7580812;33;37138;-72
2023/05/27 05:19:02;;;;;;;11.23;7.03;;;;;;;19.95;57.55;100139.41;7580536;33;39309;-69
2023/05/27 05:23:18;;;;;;;10.45;6.75;;;;;;;19.78;58.70;100143.81;7576321;33;39922;-68
2023/05/27 05:27:36;;;;;;;13.80;7.22;;;;;;;20.14;58.76;100153.69;7579657;33;39094;-69
2023/05/27 05:31:52;;;;;;;15.38;7.72;;;;;;;20.27;58.44;100157.44;7580054;33;36759;-70
2023/05/27 05:36:09;;;;;;;10.90;6.90;;;;;;;20.53;58.27;100162.91;7580095;33;39935;-71
2023/05/27 05:40:26;;;;;;;9.20;6.20;;;;;;;20.74;57.58;100151.16;7580416;33;40030;-71
2023/05/27 05:44:42;;;;;;;13.00;6.35;;;;;;;20.87;57.73;100152.91;7580130;33;37914;-67
2023/05/27 05:48:58;;;;;;;11.02;6.03;;;;;;;21.09;57.22;100160.13;7580058;33;37259;-69
2023/05/27 05:53:14;;;;;;;9.32;5.70;;;;;;;21.20;57.15;100160.56;7579728;33;39319;-69
2023/05/27 05:57:32;;;;;;;19.35;7.72;;;;;;;21.42;55.38;100161.41;7579768;33;39912;-68
2023/05/27 06:01:51;;;;;;;17.25;7.00;;;;;;;21.56;56.01;100162.03;7579709;33;37965;-76
2023/05/27 06:06:08;;;;;;;16.55;6.60;;;;;;;21.38;54.98;100161.28;7579698;33;37870;-76
2023/05/27 06:10:24;;;;;;;12.52;6.57;;;;;;;21.25;54.98;100177.00;7579929;33;40213;-76
2023/05/27 06:14:40;;;;;;;13.13;6.72;;;;;;;21.76;52.93;100175.06;7578432;33;40048;-76
2023/05/27 06:18:56;;;;;;;11.63;6.53;;;;;;;21.54;54.79;100180.94;7580009;33;38694;-74
2023/05/27 06:23:13;;;;;;;12.93;7.80;;;;;;;21.79;53.25;100181.12;7579988;33;38466;-75
2023/05/27 06:27:30;;;;;;;11.52;6.82;;;;;;;21.82;53.72;100177.62;7580408;33;39391;-73
2023/05/27 06:31:48;;;;;;;10.75;5.00;;;;;;;21.93;53.20;100193.56;7570259;33;40073;-74
2023/05/27 06:36:04;;;;;;;10.98;4.47;;;;;;;22.35;45.91;100183.59;7580419;33;40252;-75
2023/05/27 06:40:21;;;;;;;16.75;5.20;;;;;;;22.31;46.58;100186.25;7577698;33;37097;-75
2023/05/27 06:44:37;;;;;;;8.63;4.22;;;;;;;22.40;44.64;100186.97;7554695;33;39167;-76
2023/05/27 06:48:53;;;;;;;9.98;4.47;;;;;;;22.71;43.11;100191.22;7554546;33;40095;-76
2023/05/27 06:53:10;;;;;;;9.27;4.72;;;;;;;22.76;42.96;100196.56;7556436;33;38719;-73
2023/05/27 06:57:26;;;;;;;12.05;5.12;;;;;;;23.02;42.46;100192.66;7577077;33;37879;-74
2023/05/27 07:01:43;;;;;;;10.30;4.75;;;;;;;23.16;39.67;100193.19;7577238;33;39790;-74
2023/05/27 07:05:59;;;;;;;9.35;5.15;;;;;;;23.33;41.85;100196.87;7579051;33;39898;-74
2023/05/27 07:10:16;;;;;;;9.50;5.05;;;;;;;23.07;42.37;100198.00;7579582;33;38070;-74
2023/05/27 07:14:33;;;;;;;11.27;5.47;;;;;;;23.40;42.64;100211.00;7577320;33;37058;-74
2023/05/27 07:18:49;;;;;;;11.25;4.72;;;;;;;22.97;41.91;100212.34;7576653;33;39074;-74
2023/05/27 07:23:05;;;;;;;13.65;5.05;;;;;;;23.09;41.50;100209.59;7577369;33;39978;-74
2023/05/27 07:27:21;;;;;;;16.98;5.28;;;;;;;23.35;41.59;100211.22;7564255;33;37906;-74
2023/05/27 07:31:38;;;;;;;15.02;4.65;;;;;;;23.47;42.92;100208.44;7579580;33;37161;-74
2023/05/27 07:35:54;;;;;;;10.20;4.82;;;;;;;23.42;40.20;100211.47;7579444;33;39471;-73
2023/05/27 07:40:11;;;;;;;8.15;4.57;;;;;;;23.56;42.16;100214.72;7579489;33;40029;-74
2023/05/27 07:44:27;;;;;;;13.35;5.55;;;;;;;23.76;41.89;100198.22;7579353;33;38586;-74
2023/05/27 07:48:44;;;;;;;10.85;4.62;;;;;;;23.77;39.79;100197.06;7579291;33;37456;-74
2023/05/27 07:53:00;;;;;;;11.50;4.15;;;;;;;23.60;40.85;100203.69;7579306;33;39616;-74
2023/05/27 07:57:17;;;;;;;11.23;4.90;;;;;;;23.79;42.02;100197.50;7578878;33;40873;-74
2023/05/27 08:01:33;;;;;;;10.68;4.70;;;;;;;23.89;41.21;100197.06;7578905;33;38667;-74
2023/05/27 08:05:49;;;;;;;9.15;4.50;;;;;;;23.91;41.55;100200.28;7578873;33;37230;-74
2023/05/27 08:10:07;;;;;;;13.27;5.10;;;;;;;23.99;40.12;100191.00;7578851;33;39333;-74
2023/05/27 08:14:24;;;;;;;10.52;4.15;;;;;;;24.29;40.06;100179.50;7578615;33;40861;-74
2023/05/27 08:18:41;;;;;;;7.78;4.32;;;;;;;24.26;41.98;100187.75;7578347;33;37935;-74
2023/05/27 08:22:57;;;;;;;11.90;4.60;;;;;;;24.43;40.81;100181.88;7578365;33;36838;-74
2023/05/27 08:27:16;;;;;;;8.73;4.60;;;;;;;24.58;40.86;100188.69;7578195;33;39159;-74
2023/05/27 08:31:33;;;;;;;13.30;4.30;;;;;;;25.10;39.93;100179.25;7578213;33;39974;-74
2023/05/27 08:35:49;;;;;;;14.18;4.53;;;;;;;24.93;38.68;100183.22;7578040;33;37704;-74
2023/05/27 08:40:13;;;;;;;7.70;3.92;;;;;;;25.12;37.16;100171.31;7578092;33;38038;-74
2023/05/27 08:44:30;;;;;;;8.30;4.00;;;;;;;25.28;37.09;100170.53;7578127;33;39347;-74
2023/05/27 08:48:47;;;;;;;14.38;4.25;;;;;;;25.48;35.36;100169.41;7581260;33;39993;-74
2023/05/27 08:53:03;;;;;;;11.10;4.25;;;;;;;25.55;36.30;100168.78;7581588;33;37825;-74
2023/05/27 08:57:23;;;;;;;8.93;3.47;;;;;;;25.45;34.03;100175.72;7581294;33;37849;-74
2023/05/27 09:01:41;;;;;;;7.50;3.83;;;;;;;25.82;34.22;100166.19;7581547;33;40077;-74
2023/05/27 09:05:57;;;;;;;7.85;3.72;;;;;;;25.09;37.76;100169.28;7581387;33;39813;-74
2023/05/27 09:10:13;;;;;;;8.77;3.80;;;;;;;25.33;35.49;100161.88;7581324;33;38109;-74
2023/05/27 09:14:30;;;;;;;12.50;3.72;;;;;;;25.81;35.48;100158.97;7581287;33;36962;-74
2023/05/27 09:18:46;;;;;;;8.60;3.55;;;;;;;26.12;35.88;100158.03;7581190;33;39462;-74
2023/05/27 09:23:04;;;;;;;12.00;4.05;;;;;;;26.61;34.38;100151.78;7567980;33;40807;-74
2023/05/27 09:27:28;;;;;;;11.98;4.28;;;;;;;26.73;34.27;100148.03;7581040;33;38101;-74
2023/05/27 09:31:45;;;;;;;8.80;4.25;;;;;;;27.04;34.48;100151.72;7581144;33;38005;-74
2023/05/27 09:36:03;;;;;;;10.63;4.05;;;;;;;27.07;34.29;100152.97;7567752;33;40027;-74
2023/05/27 09:40:19;;;;;;;10.07;3.97;;;;;;;27.49;32.65;100154.81;7580954;33;39861;-74
2023/05/27 09:44:40;;;;;;;11.05;3.85;;;;;;;26.98;29.33;100151.25;7580816;33;38799;-74
2023/05/27 09:48:58;;;;;;;10.27;4.30;;;;;;;26.89;29.56;100153.50;7580907;33;37852;-74
2023/05/27 09:53:15;;;;;;;13.75;3.75;;;;;;;26.28;30.55;100145.97;7567535;33;39430;-74
2023/05/27 09:57:33;;;;;;;14.50;4.45;;;;;;;26.36;32.45;100142.13;7579573;33;40088;-74
2023/05/27 10:01:50;;;;;;;7.93;4.05;;;;;;;26.06;31.79;100142.78;7580591;33;38674;-74
2023/05/27 10:06:07;;;;;;;8.23;3.65;;;;;;;25.43;32.32;100141.78;7567576;33;37076;-74
2023/05/27 10:10:23;;;;;;;8.23;4.30;;;;;;;25.82;33.25;100139.06;7580520;33;40149;-74
2023/05/27 10:14:41;;;;;;;11.65;4.30;;;;;;;26.04;33.26;100145.94;7580467;33;40807;-74
2023/05/27 10:18:58;;;;;;;7.55;3.62;;;;;;;26.28;31.53;100135.59;7580354;33;38190;-74
2023/05/27 10:23:33;;;;;;;11.48;4.50;;;;;;;25.92;34.31;100137.62;7580455;33;37073;-74
2023/05/27 10:27:49;;;;;;;10.82;3.45;;;;;;;25.43;33.76;100144.56;7580511;33;39342;-74
2023/05/27 10:32:05;;;;;;;8.20;4.12;;;;;;;25.48;33.82;100144.28;7580206;33;40038;-74
2023/05/27 10:36:26;;;;;;;7.25;4.05;;;;;;;24.94;34.64;100133.84;7580055;33;37959;-74
2023/05/27 10:40:43;;;;;;;8.00;4.50;;;;;;;24.91;36.45;100140.12;7580314;33;37424;-74
2023/05/27 10:45:18;;;;;;;12.45;4.47;;;;;;;24.98;36.49;100140.31;7567088;33;39374;-74
2023/05/27 10:49:35;;;;;;;10.13;4.37;;;;;;;25.55;38.17;100145.66;7579909;33;40782;-74
2023/05/27 10:53:52;;;;;;;11.43;4.90;;;;;;;25.72;39.03;100144.41;7579902;33;38784;-74
2023/05/27 10:58:29;;;;;;;10.07;5.05;;;;;;;25.74;38.91;100140.06;7579312;33;37569;-74
2023/05/27 11:02:46;;;;;;;13.68;5.20;;;;;;;25.75;37.37;100136.13;7579961;33;40202;-74
2023/05/27 11:07:04;;;;;;;13.07;4.87;;;;;;;25.66;38.04;100130.75;7579839;33;40780;-75
2023/05/27 11:11:21;;;;;;;9.90;4.97;;;;;;;25.45;37.39;100125.47;7579239;33;38053;-74
2023/05/27 11:15:41;;;;;;;10.65;5.25;;;;;;;25.61;39.64;100127.41;7579861;33;37495;-74
2023/05/27 11:19:58;;;;;;;8.98;4.90;;;;;;;25.68;39.15;100127.56;7579918;33;39446;-74
2023/05/27 11:24:19;;;;;;;11.10;5.10;;;;;;;25.62;40.67;100129.03;7579627;33;39831;-74
2023/05/27 11:28:36;;;;;;;11.05;5.30;;;;;;;25.51;37.62;100128.81;7579684;33;38717;-74
2023/05/27 11:33:02;;;;;;;8.75;4.47;;;;;;;25.41;40.96;100127.41;7579599;33;37179;-74
2023/05/27 11:37:18;;;;;;;10.50;4.72;;;;;;;25.44;41.70;100129.47;7579563;33;39393;-74
2023/05/27 11:41:34;;;;;;;8.10;4.60;;;;;;;25.41;42.73;100135.78;7579430;33;40876;-74
2023/05/27 11:45:51;;;;;;;13.73;5.62;;;;;;;25.28;42.29;100131.47;7579214;33;38718;-74
2023/05/27 11:50:08;;;;;;;12.75;5.47;;;;;;;25.27;42.99;100129.88;7579214;33;37962;-74
2023/05/27 11:54:28;;;;;;;10.98;5.95;;;;;;;25.47;42.77;100127.91;7579122;33;39499;-74
2023/05/27 11:58:45;;;;;;;14.70;5.35;;;;;;;25.40;43.08;100127.75;7579027;33;40913;-74
2023/05/27 12:03:01;;;;;;;8.18;4.30;;;;;;;25.39;43.58;100115.78;7578773;33;38612;-74
2023/05/27 12:07:17;;;;;;;10.75;4.35;;;;;;;25.53;39.64;100104.13;7578808;33;38052;-74
2023/05/27 12:11:36;;;;;;;10.00;5.05;;;;;;;25.55;37.96;100112.16;7578814;33;38421;-74
2023/05/27 12:15:53;;;;;;;14.27;4.75;;;;;;;25.55;39.60;100101.78;7578790;33;40818;-74
2023/05/27 12:20:11;;;;;;;8.45;4.87;;;;;;;26.12;37.88;100093.78;7578750;33;37904;-74
2023/05/27 12:24:27;;;;;;;16.17;5.55;;;;;;;26.29;35.64;100097.28;7581848;33;37747;-74
2023/05/27 12:28:44;;;;;;;10.00;5.12;;;;;;;26.00;34.98;100099.53;7581722;33;40167;-74
2023/05/27 12:33:01;;;;;;;9.77;5.12;;;;;;;25.86;35.19;100097.25;7581675;33;40845;-74
2023/05/27 12:37:17;;;;;;;17.85;5.78;;;;;;;25.87;35.34;100090.47;7581421;33;38784;-74
2023/05/27 12:41:33;;;;;;;11.55;5.60;;;;;;;25.82;35.87;100088.00;7581730;33;37785;-74
2023/05/27 12:45:50;;;;;;;11.85;5.37;;;;;;;25.66;35.21;100082.47;7581503;33;39360;-74
2023/05/27 12:50:07;;;;;;;11.10;5.03;;;;;;;25.67;35.78;100078.50;7581690;33;40782;-74
2023/05/27 12:54:24;;;;;;;11.50;6.05;;;;;;;25.90;35.72;100077.75;7581555;33;37924;-74
2023/05/27 12:58:40;;;;;;;12.02;6.12;;;;;;;25.70;36.15;100072.19;7567012;33;37703;-74
2023/05/27 13:02:56;;;;;;;11.05;5.55;;;;;;;25.79;36.09;100067.19;7566799;33;39462;-74
2023/05/27 13:07:13;;;;;;;10.48;5.35;;;;;;;25.76;36.84;100062.31;7580090;33;39998;-74
2023/05/27 13:11:29;;;;;;;11.77;6.00;;;;;;;25.88;36.00;100046.59;7580021;33;38616;-74
2023/05/27 13:15:46;;;;;;;11.73;5.07;;;;;;;25.92;36.89;100047.47;7579966;33;37068;-74
2023/05/27 13:20:03;;;;;;;11.90;5.15;;;;;;;25.68;37.41;100054.97;7579712;33;40210;-74
2023/05/27 13:24:20;;;;;;;13.60;6.35;;;;;;;25.67;38.30;100042.22;7579684;33;40666;-74
2023/05/27 13:28:36;;;;;;;10.13;5.12;;;;;;;26.43;37.57;100036.06;7579558;33;37982;-74
2023/05/27 13:32:53;;;;;;;13.35;5.50;;;;;;;26.51;38.34;100034.16;7579550;33;37915;-74
2023/05/27 13:37:09;;;;;;;13.05;5.30;;;;;;;26.41;39.67;100027.25;7579542;33;40189;-74
2023/05/27 13:41:27;;;;;;;12.40;5.22;;;;;;;26.08;41.95;100028.66;7579500;33;38872;-74
2023/05/27 13:45:44;;;;;;;9.65;5.68;;;;;;;25.91;42.73;100026.31;7579484;33;38658;-73
2023/05/27 13:50:00;;;;;;;14.32;6.53;;;;;;;25.80;42.87;100024.13;7579359;33;37802;-74
2023/05/27 13:54:16;;;;;;;17.05;6.25;;;;;;;25.83;43.41;100023.37;7579234;33;39464;-74
2023/05/27 13:58:33;;;;;;;15.55;6.22;;;;;;;25.63;43.44;100013.41;7570813;33;282870;-74
2023/05/27 14:02:53;;;;;;;14.00;7.80;;;;;;;25.60;44.69;100011.38;7580502;33;39076;-73
2023/05/27 14:07:10;;;;;;;15.07;5.72;;;;;;;25.64;44.43;100010.25;7580775;33;36162;-74
2023/05/27 14:11:26;;;;;;;11.95;6.18;;;;;;;25.55;41.86;100006.09;7580603;33;39503;-74
2023/05/27 14:15:42;;;;;;;18.02;9.15;;;;;;;25.52;42.19;99999.25;7580678;33;40006;-74
2023/05/27 14:19:59;;;;;;;11.15;6.62;;;;;;;25.60;41.43;99991.84;7580338;33;38558;-74
2023/05/27 14:24:16;;;;;;;11.73;5.93;;;;;;;25.82;42.07;99979.88;7580487;33;37858;-74
2023/05/27 14:28:32;;;;;;;11.93;6.22;;;;;;;25.81;38.45;99978.25;7580531;33;40115;-74
2023/05/27 14:32:49;;;;;;;23.15;11.73;;;;;;;25.93;42.07;99976.50;7580355;33;40218;-74
2023/05/27 14:37:05;;;;;;;9.23;5.85;;;;;;;26.40;39.20;99962.13;7580185;33;37550;-74
2023/05/27 14:41:26;;;;;;;11.55;5.75;;;;;;;27.11;37.65;99955.19;7580405;33;37041;-74
2023/05/27 14:45:43;;;;;;;10.52;5.25;;;;;;;27.35;34.54;99948.31;7579722;33;39206;-74
2023/05/27 14:49:59;;;;;;;8.93;5.22;;;;;;;27.70;34.57;99945.09;7580220;33;39805;-74
2023/05/27 14:54:15;;;;;;;9.98;5.15;;;;;;;26.89;33.89;99940.91;7580000;33;38094;-74
2023/05/27 14:58:31;;;;;;;10.85;5.00;;;;;;;26.42;34.85;99943.03;7579865;33;37421;-74
2023/05/27 15:02:49;;;;;;;13.07;5.20;;;;;;;27.14;33.28;99929.25;7580079;33;39275;-74
2023/05/27 15:07:05;;;;;;;10.02;5.15;;;;;;;27.39;32.28;99926.78;7580013;33;39736;-74
2023/05/27 15:11:21;;;;;;;9.57;4.93;;;;;;;27.41;33.61;99916.00;7579956;33;37743;-74
2023/05/27 15:15:43;;;;;;;8.32;4.60;;;;;;;27.49;32.45;99912.09;7579912;33;37833;-74
2023/05/27 15:19:59;;;;;;;11.05;5.00;;;;;;;27.19;32.17;99919.72;7579848;33;39154;-74
2023/05/27 15:24:16;;;;;;;9.70;5.15;;;;;;;27.86;33.22;99919.63;7579834;33;40398;-74
2023/05/27 15:28:32;;;;;;;9.85;4.90;;;;;;;28.26;30.97;99911.59;7579727;33;38081;-74
2023/05/27 15:32:48;;;;;;;10.02;4.60;;;;;;;28.37;30.18;99906.88;7579797;33;37891;-74
2023/05/27 15:37:05;;;;;;;9.63;5.25;;;;;;;28.51;31.92;99917.37;7579466;33;40584;-74
2023/05/27 15:41:22;;;;;;;11.65;5.30;;;;;;;28.69;31.07;99903.47;7579511;33;39891;-74
2023/05/27 15:45:41;;;;;;;12.48;5.18;;;;;;;28.02;31.93;99916.59;7579310;33;37943;-74
2023/05/27 15:50:17;;;;;;;9.20;4.70;;;;;;;28.24;33.66;99908.38;7579239;33;37448;-74
2023/05/27 15:54:34;;;;;;;12.10;5.07;;;;;;;27.96;31.02;99906.97;7578339;33;39304;-74
2023/05/27 15:58:50;;;;;;;11.23;4.97;;;;;;;27.66;31.36;99901.44;7578512;33;40780;-74
2023/05/27 16:03:07;;;;;;;10.05;4.62;;;;;;;28.05;31.25;99893.41;7578932;33;37825;-74
2023/05/27 16:07:23;;;;;;;8.52;4.55;;;;;;;28.06;30.32;99891.41;7579013;33;37770;-74
2023/05/27 16:11:39;;;;;;;11.00;4.55;;;;;;;28.18;29.86;99890.28;7578903;33;39484;-74
2023/05/27 16:15:56;;;;;;;10.02;4.78;;;;;;;28.54;29.18;99893.34;7578650;33;39957;-74
2023/05/27 16:20:12;;;;;;;7.10;4.18;;;;;;;28.46;31.34;99890.50;7578351;33;38062;-74
2023/05/27 16:24:30;;;;;;;11.35;4.53;;;;;;;28.62;30.52;99890.22;7578629;33;37830;-74
2023/05/27 16:28:47;;;;;;;9.25;4.18;;;;;;;28.24;29.78;99897.97;7578436;33;40094;-74
2023/05/27 16:33:03;;;;;;;10.50;5.03;;;;;;;27.75;29.99;99892.72;7578362;33;39825;-74
2023/05/27 16:37:20;;;;;;;9.60;4.70;;;;;;;27.56;33.97;99894.53;7578067;33;38872;-74
2023/05/27 16:41:36;;;;;;;9.93;4.80;;;;;;;27.60;35.50;99889.00;7578166;33;36994;-75
2023/05/27 16:45:53;;;;;;;11.90;6.28;;;;;;;27.72;35.48;99881.09;7578113;33;40150;-74
2023/05/27 16:50:11;;;;;;;10.60;5.12;;;;;;;27.73;35.68;99891.12;7577950;33;40844;-74
2023/05/27 16:54:27;;;;;;;20.92;5.82;;;;;;;27.86;34.56;99882.44;7578002;33;38529;-74
2023/05/27 16:58:43;;;;;;;12.40;5.60;;;;;;;27.76;35.21;99877.53;7577523;33;37279;-74
2023/05/27 17:03:00;;;;;;;10.70;5.68;;;;;;;27.63;35.88;99886.22;7577500;33;39317;-76
2023/05/27 17:07:16;;;;;;;10.18;6.18;;;;;;;27.51;35.68;99883.69;7578852;33;39933;-74
2023/05/27 17:11:32;;;;;;;12.93;6.22;;;;;;;27.38;36.90;99887.97;7581278;33;37959;-74
2023/05/27 17:15:49;;;;;;;13.77;5.97;;;;;;;27.16;37.79;99894.09;7581347;33;37127;-74
2023/05/27 17:20:07;;;;;;;18.37;7.25;;;;;;;27.13;38.01;99885.66;7581278;33;40049;-74
2023/05/27 17:24:23;;;;;;;12.43;7.00;;;;;;;26.91;38.27;99895.78;7581213;33;40632;-74
2023/05/27 17:28:39;;;;;;;13.73;6.68;;;;;;;26.70;39.15;99901.87;7581161;33;37791;-74
2023/05/27 17:32:55;;;;;;;13.00;5.78;;;;;;;26.51;39.82;99900.00;7581105;33;36852;-74
2023/05/27 17:37:12;;;;;;;13.52;5.35;;;;;;;26.39;40.12;99899.06;7581033;33;40133;-74
2023/05/27 17:41:29;;;;;;;13.10;5.65;;;;;;;25.88;41.33;99902.19;7581014;33;40061;-74
2023/05/27 17:45:45;;;;;;;10.90;5.75;;;;;;;25.86;41.43;99910.94;7580785;33;37565;-74
2023/05/27 17:50:02;;;;;;;11.70;6.78;;;;;;;25.62;41.43;99911.31;7580959;33;38130;-74
2023/05/27 17:54:18;;;;;;;17.20;10.15;;;;;;;25.44;41.97;99917.37;7580987;33;40192;-74
2023/05/27 17:58:34;;;;;;;13.70;8.05;;;;;;;25.22;41.88;99926.47;7580466;33;40019;-74
2023/05/27 18:02:50;;;;;;;17.87;8.43;;;;;;;25.17;42.14;99923.97;7580696;33;37967;-74
2023/05/27 18:07:07;;;;;;;15.07;7.43;;;;;;;24.90;42.77;99932.97;7580757;33;36923;-74
2023/05/27 18:11:23;;;;;;;15.30;7.05;;;;;;;24.72;42.78;99931.78;7580817;33;39488;-74
2023/05/27 18:15:43;;;;;;;15.45;7.87;;;;;;;24.66;42.23;99939.59;7580640;33;40789;-74
2023/05/27 18:20:00;;;;;;;11.90;6.65;;;;;;;24.63;41.67;99940.34;7579735;33;38745;-77
2023/05/27 18:24:16;;;;;;;9.60;5.32;;;;;;;24.62;41.29;99946.28;7580562;33;37289;-74
2023/05/27 18:28:32;;;;;;;13.10;7.10;;;;;;;24.39;41.90;99941.38;7580557;33;39420;-74
2023/05/27 18:32:50;;;;;;;12.20;5.90;;;;;;;24.22;43.37;99950.91;7580465;33;39998;-74
2023/05/27 18:37:06;;;;;;;11.45;6.55;;;;;;;23.95;44.54;99945.06;7580337;33;37889;-74
2023/05/27 18:41:23;;;;;;;10.98;6.55;;;;;;;23.86;44.67;99960.31;7580460;33;37975;-74
2023/05/27 18:45:58;;;;;;;10.63;5.80;;;;;;;23.59;45.71;99960.78;7580414;33;39995;-74
2023/05/27 18:50:15;;;;;;;16.73;6.10;;;;;;;23.50;46.39;99962.09;7580300;33;40164;-74
2023/05/27 18:54:47;;;;;;;12.90;6.35;;;;;;;23.43;46.33;99973.84;7580210;33;37552;-74
2023/05/27 18:59:03;;;;;;;11.48;7.00;;;;;;;23.18;47.07;99973.94;7580002;33;36808;-74
2023/05/27 19:03:20;;;;;;;13.48;7.12;;;;;;;22.89;47.89;99983.38;7580190;33;39167;-74
2023/05/27 19:07:36;;;;;;;16.37;7.12;;;;;;;22.87;47.71;99992.06;7579992;33;40785;-74
2023/05/27 19:11:53;;;;;;;12.25;6.28;;;;;;;22.79;48.15;99994.97;7579849;33;38719;-74
2023/05/27 19:16:09;;;;;;;12.57;6.32;;;;;;;22.66;48.40;99985.81;7580002;33;37206;-74
2023/05/27 19:20:26;;;;;;;12.57;6.25;;;;;;;22.42;49.02;99998.56;7579823;33;40272;-74
2023/05/27 19:24:42;;;;;;;13.07;6.03;;;;;;;22.45;48.83;99997.84;7579735;33;39997;-74
2023/05/27 19:28:58;;;;;;;14.00;7.57;;;;;;;22.30;48.92;100013.25;7579475;33;38839;-74
2023/05/27 19:33:16;;;;;;;14.27;5.82;;;;;;;21.98;49.47;100012.12;7579767;33;38319;-74
2023/05/27 19:37:33;;;;;;;15.65;6.62;;;;;;;22.11;49.51;100013.78;7579456;33;40184;-74
2023/05/27 19:41:49;;;;;;;10.82;5.53;;;;;;;21.99;50.33;100013.75;7579459;33;40699;-74
2023/05/27 19:46:06;;;;;;;13.68;6.57;;;;;;;22.06;50.27;100008.44;7579478;33;38750;-74
2023/05/27 19:50:22;;;;;;;11.65;6.53;;;;;;;21.94;50.56;100006.44;7579419;33;37124;-74
2023/05/27 19:54:38;;;;;;;13.90;6.35;;;;;;;21.84;51.28;100008.84;7579272;33;40053;-74